createdAt,value
2019-05-26T00:02:14.374Z,44.53
2019-05-26T00:04:42.767Z,40.37
2019-05-26T00:07:11.173Z,44.53
2019-05-26T00:09:39.576Z,39.40
2019-05-26T00:12:07.979Z,42.67
2019-05-26T00:14:36.442Z,42.13
2019-05-26T00:17:04.931Z,42.20
2019-05-26T00:19:33.344Z,40.93
2019-05-26T00:22:01.765Z,43.10
2019-05-26T00:24:30.167Z,39.83
2019-05-26T00:26:58.583Z,44.37
2019-05-26T00:29:26.973Z,45.53
2019-05-26T00:31:55.447Z,36.87
2019-05-26T00:34:23.849Z,40.97
2019-05-26T00:36:52.271Z,39.83
2019-05-26T00:39:20.661Z,38.83
2019-05-26T00:41:49.179Z,42.30
2019-05-26T00:44:17.553Z,41.00
2019-05-26T00:46:46.030Z,42.67
2019-05-26T00:49:14.422Z,41.43
2019-05-26T00:51:42.847Z,40.87
2019-05-26T00:54:11.256Z,44.40
2019-05-26T00:56:39.725Z,41.40
2019-05-26T00:59:08.209Z,45.30
2019-05-26T01:01:36.629Z,45.53
2019-05-26T01:04:05.078Z,42.93
2019-05-26T01:06:33.473Z,44.47
2019-05-26T01:09:01.894Z,38.13
2019-05-26T01:11:30.285Z,34.63
2019-05-26T01:13:58.709Z,34.40
2019-05-26T01:16:27.098Z,32.97
2019-05-26T01:18:55.514Z,36.63
2019-05-26T01:21:23.981Z,45.80
2019-05-26T01:23:52.385Z,36.50
2019-05-26T01:26:20.802Z,38.40
2019-05-26T01:28:49.212Z,38.00
2019-05-26T01:31:17.601Z,38.80
2019-05-26T01:33:46.018Z,36.47
2019-05-26T01:36:14.487Z,36.57
2019-05-26T01:38:43.134Z,33.27
2019-05-26T01:41:11.532Z,34.23
2019-05-26T01:43:39.951Z,37.73
2019-05-26T01:46:08.415Z,36.03
2019-05-26T01:48:36.841Z,35.53
2019-05-26T01:51:05.230Z,33.53
2019-05-26T01:53:33.647Z,36.27
2019-05-26T01:56:02.034Z,38.70
2019-05-26T01:58:30.449Z,47.30
2019-05-26T02:00:58.878Z,38.10
2019-05-26T02:03:27.348Z,40.20
2019-05-26T02:05:55.731Z,44.10
2019-05-26T02:08:38.399Z,39.20
2019-05-26T02:10:54.260Z,55.23
2019-05-26T02:13:22.716Z,63.30
2019-05-26T02:15:51.109Z,71.97
2019-05-26T02:18:19.510Z,49.53
2019-05-26T02:20:47.918Z,44.40
2019-05-26T02:23:16.487Z,48.30
2019-05-26T02:25:44.900Z,40.83
2019-05-26T02:28:13.298Z,44.97
2019-05-26T02:30:41.713Z,34.50
2019-05-26T02:33:10.116Z,31.20
2019-05-26T02:35:38.506Z,33.70
2019-05-26T02:38:07.019Z,33.40
2019-05-26T02:40:35.431Z,44.90
2019-05-26T02:43:03.810Z,31.50
2019-05-26T02:45:32.306Z,31.30
2019-05-26T02:48:00.710Z,32.40
2019-05-26T02:50:29.113Z,33.50
2019-05-26T02:52:57.607Z,30.83
2019-05-26T02:55:26.117Z,29.50
2019-05-26T02:57:54.515Z,31.33
2019-05-26T03:00:43.296Z,43.00
2019-05-26T03:03:13.346Z,42.93
2019-05-26T03:05:44.261Z,32.53
2019-05-26T03:08:15.019Z,32.87
2019-05-26T03:10:43.681Z,37.50
2019-05-26T03:13:14.219Z,63.60
2019-05-26T03:15:44.733Z,45.37
2019-05-26T03:18:13.227Z,59.40
2019-05-26T03:20:41.969Z,69.90
2019-05-26T03:23:10.598Z,60.17
2019-05-26T03:25:39.361Z,49.83
2019-05-26T03:28:08.192Z,49.03
2019-05-26T03:30:37.154Z,35.20
2019-05-26T03:33:05.693Z,39.20
2019-05-26T03:35:34.165Z,39.80
2019-05-26T03:38:02.588Z,33.97
2019-05-26T03:40:31.067Z,38.47
2019-05-26T03:42:59.480Z,31.10
2019-05-26T03:45:43.207Z,32.50
2019-05-26T03:48:11.831Z,34.57
2019-05-26T03:50:40.244Z,30.83
2019-05-26T03:53:08.793Z,33.47
2019-05-26T03:55:37.199Z,29.83
2019-05-26T03:58:05.662Z,37.07
2019-05-26T04:00:34.067Z,33.20
2019-05-26T04:03:03.236Z,35.57
2019-05-26T04:05:31.661Z,31.60
2019-05-26T04:08:04.536Z,32.70
2019-05-26T04:10:30.181Z,41.80
2019-05-26T04:12:58.609Z,33.77
2019-05-26T04:15:27.005Z,34.60
2019-05-26T04:17:55.492Z,39.00
2019-05-26T04:20:24.016Z,43.97
2019-05-26T04:22:52.490Z,32.73
2019-05-26T04:25:20.879Z,37.07
2019-05-26T04:27:49.295Z,49.93
2019-05-26T04:30:17.827Z,33.70
2019-05-26T04:32:46.324Z,34.40
2019-05-26T04:35:14.778Z,31.47
2019-05-26T04:37:43.307Z,36.73
2019-05-26T04:40:25.834Z,33.80
2019-05-26T04:42:41.904Z,27.40
2019-05-26T04:45:10.852Z,30.07
2019-05-26T04:47:39.256Z,26.90
2019-05-26T04:50:08.708Z,57.60
2019-05-26T04:52:37.115Z,29.87
2019-05-26T04:55:08.751Z,23.00
2019-05-26T04:57:37.155Z,22.70
2019-05-26T05:00:06.688Z,28.90
2019-05-26T05:02:35.100Z,38.40
2019-05-26T05:05:07.291Z,25.03
2019-05-26T05:07:35.711Z,24.40
2019-05-26T05:10:05.449Z,23.00
2019-05-26T05:12:33.862Z,21.97
2019-05-26T05:15:02.254Z,26.20
2019-05-26T05:17:30.676Z,23.90
2019-05-26T05:19:59.094Z,20.20
2019-05-26T05:22:27.503Z,19.00
2019-05-26T05:24:55.908Z,18.83
2019-05-26T05:27:24.387Z,17.57
2019-05-26T05:29:52.792Z,17.30
2019-05-26T05:32:21.208Z,17.70
2019-05-26T05:34:49.626Z,15.90
2019-05-26T05:37:18.104Z,16.67
2019-05-26T05:39:46.515Z,17.17
2019-05-26T05:42:14.931Z,16.37
2019-05-26T05:44:43.331Z,15.50
2019-05-26T05:47:11.839Z,14.90
2019-05-26T05:49:40.296Z,16.00
2019-05-26T05:52:08.698Z,15.60
2019-05-26T05:54:37.112Z,14.53
2019-05-26T05:57:05.520Z,15.70
2019-05-26T05:59:33.915Z,16.63
2019-05-26T06:02:02.348Z,16.37
2019-05-26T06:04:30.737Z,15.40
2019-05-26T06:06:59.157Z,16.20
2019-05-26T06:09:27.561Z,15.60
2019-05-26T06:11:57.019Z,16.17
2019-05-26T06:14:25.865Z,15.00
2019-05-26T06:16:54.289Z,17.73
2019-05-26T06:19:22.702Z,15.97
2019-05-26T06:21:51.269Z,15.63
2019-05-26T06:24:19.800Z,14.70
2019-05-26T06:26:48.212Z,16.60
2019-05-26T06:29:16.611Z,18.30
2019-05-26T06:31:45.417Z,15.40
2019-05-26T06:34:14.060Z,15.50
2019-05-26T06:36:42.475Z,15.70
2019-05-26T06:39:10.869Z,15.87
2019-05-26T06:41:39.273Z,16.20
2019-05-26T06:44:07.698Z,16.30
2019-05-26T06:46:36.103Z,14.20
2019-05-26T06:49:04.689Z,14.40
2019-05-26T06:51:33.099Z,13.20
2019-05-26T06:54:01.497Z,13.83
2019-05-26T06:56:29.896Z,13.80
2019-05-26T06:59:02.533Z,13.33
2019-05-26T07:01:28.442Z,14.30
2019-05-26T07:03:56.871Z,13.23
2019-05-26T07:06:25.271Z,13.30
2019-05-26T07:08:53.696Z,14.37
2019-05-26T07:11:22.091Z,13.33
2019-05-26T07:13:50.494Z,11.67
2019-05-26T07:16:18.898Z,11.90
2019-05-26T07:18:48.041Z,11.77
2019-05-26T07:21:16.453Z,12.90
2019-05-26T07:23:44.884Z,14.00
2019-05-26T07:26:13.273Z,13.43
2019-05-26T07:28:41.682Z,15.10
2019-05-26T07:31:10.086Z,14.13
2019-05-26T07:33:38.486Z,15.00
2019-05-26T07:36:06.896Z,14.00
2019-05-26T07:38:35.298Z,13.70
2019-05-26T07:41:03.700Z,13.60
2019-05-26T07:43:32.110Z,14.63
2019-05-26T07:46:00.520Z,12.30
2019-05-26T07:48:28.997Z,13.03
2019-05-26T07:50:57.393Z,14.23
2019-05-26T07:53:25.806Z,11.80
2019-05-26T07:55:54.197Z,13.67
2019-05-26T07:58:22.611Z,13.80
2019-05-26T08:00:51.094Z,17.20
2019-05-26T08:03:19.527Z,13.60
2019-05-26T08:05:47.922Z,13.87
2019-05-26T08:08:18.274Z,14.30
2019-05-26T08:10:46.680Z,14.50
2019-05-26T08:13:15.095Z,13.80
2019-05-26T08:15:43.759Z,14.23
2019-05-26T08:18:12.170Z,13.30
2019-05-26T08:20:42.212Z,13.70
2019-05-26T08:23:10.627Z,11.83
2019-05-26T08:25:39.018Z,13.50
2019-05-26T08:28:07.432Z,11.97
2019-05-26T08:30:35.818Z,14.10
2019-05-26T08:33:04.309Z,14.77
2019-05-26T08:35:32.721Z,13.27
2019-05-26T08:38:01.125Z,15.67
2019-05-26T08:40:29.534Z,12.23
2019-05-26T08:42:57.989Z,11.97
2019-05-26T08:45:26.392Z,14.20
2019-05-26T08:47:54.806Z,11.73
2019-05-26T08:50:23.375Z,10.67
2019-05-26T08:52:51.772Z,12.27
2019-05-26T08:55:21.037Z,12.60
2019-05-26T08:57:49.424Z,11.13
2019-05-26T09:00:18.471Z,10.93
2019-05-26T09:02:46.874Z,13.13
2019-05-26T09:05:16.742Z,10.87
2019-05-26T09:07:45.874Z,11.60
2019-05-26T09:10:14.538Z,12.40
2019-05-26T09:12:43.003Z,11.23
2019-05-26T09:15:11.732Z,10.90
2019-05-26T09:17:40.357Z,11.00
2019-05-26T09:20:11.643Z,11.30
2019-05-26T09:22:40.085Z,10.43
2019-05-26T09:25:08.998Z,9.83
2019-05-26T09:27:37.410Z,10.13
2019-05-26T09:30:07.814Z,10.53
2019-05-26T09:32:36.544Z,9.27
2019-05-26T09:35:07.020Z,9.67
2019-05-26T09:37:35.453Z,10.40
2019-05-26T09:40:06.634Z,9.30
2019-05-26T09:42:35.274Z,10.90
2019-05-26T09:45:07.676Z,10.07
2019-05-26T09:47:36.272Z,9.27
2019-05-26T09:50:08.139Z,9.60
2019-05-26T09:52:37.378Z,11.47
2019-05-26T09:55:08.003Z,9.40
2019-05-26T09:57:36.905Z,8.73
2019-05-26T10:00:10.024Z,10.60
2019-05-26T10:02:38.596Z,10.03
2019-05-26T10:05:07.613Z,8.93
2019-05-26T10:07:36.038Z,8.53
2019-05-26T10:10:08.424Z,10.10
2019-05-26T10:12:37.233Z,9.23
2019-05-26T10:15:10.071Z,8.47
2019-05-26T10:17:38.660Z,7.60
2019-05-26T10:20:09.277Z,9.03
2019-05-26T10:22:37.854Z,9.27
2019-05-26T10:25:09.890Z,8.80
2019-05-26T10:27:38.715Z,9.13
2019-05-26T10:30:09.227Z,8.43
2019-05-26T10:32:37.690Z,9.50
2019-05-26T10:35:07.301Z,8.17
2019-05-26T10:37:35.946Z,9.93
2019-05-26T10:40:05.857Z,8.80
2019-05-26T10:42:34.565Z,11.70
2019-05-26T10:45:04.416Z,7.23
2019-05-26T10:47:32.827Z,7.17
2019-05-26T10:50:01.321Z,8.17
2019-05-26T10:52:29.993Z,7.60
2019-05-26T10:54:58.791Z,6.93
2019-05-26T10:57:27.397Z,6.20
2019-05-26T10:59:57.856Z,7.57
2019-05-26T11:02:26.560Z,8.13
2019-05-26T11:04:55.141Z,6.70
2019-05-26T11:07:26.777Z,7.10
2019-05-26T11:09:53.913Z,7.43
2019-05-26T11:12:22.414Z,7.40
2019-05-26T11:14:50.859Z,6.63
2019-05-26T11:17:19.286Z,7.17
2019-05-26T11:19:47.730Z,5.97
2019-05-26T11:22:16.537Z,7.63
2019-05-26T11:24:44.954Z,5.57
2019-05-26T11:27:14.563Z,5.97
2019-05-26T11:29:43.491Z,4.60
2019-05-26T11:32:11.963Z,4.90
2019-05-26T11:34:40.421Z,4.90
2019-05-26T11:37:09.585Z,4.70
2019-05-26T11:39:38.121Z,4.60
2019-05-26T11:42:13.391Z,4.57
2019-05-26T11:44:36.801Z,4.70
2019-05-26T11:47:05.215Z,4.70
2019-05-26T11:49:33.683Z,4.87
2019-05-26T11:52:02.082Z,4.60
2019-05-26T11:54:33.765Z,6.40
2019-05-26T11:57:00.631Z,4.57
2019-05-26T11:59:29.020Z,4.60
2019-05-26T12:01:57.453Z,6.17
2019-05-26T12:04:25.851Z,4.30
2019-05-26T12:06:54.249Z,4.17
2019-05-26T12:09:22.652Z,4.97
2019-05-26T12:11:51.097Z,5.70
2019-05-26T12:14:33.405Z,6.30
2019-05-26T12:16:49.683Z,4.97
2019-05-26T12:19:18.069Z,5.17
2019-05-26T12:21:46.487Z,5.43
2019-05-26T12:24:14.873Z,6.27
2019-05-26T12:26:43.283Z,6.33
2019-05-26T12:29:11.667Z,5.73
2019-05-26T12:31:40.080Z,7.20
2019-05-26T12:34:08.476Z,4.77
2019-05-26T12:36:39.183Z,5.20
2019-05-26T12:39:09.051Z,3.90
2019-05-26T12:41:37.742Z,4.70
2019-05-26T12:44:06.293Z,5.70
2019-05-26T12:46:34.686Z,5.77
2019-05-26T12:49:03.107Z,6.60
2019-05-26T12:51:31.765Z,6.83
2019-05-26T12:54:00.373Z,6.17
2019-05-26T12:56:28.871Z,5.77
2019-05-26T12:58:57.442Z,4.67
2019-05-26T13:01:26.110Z,9.30
2019-05-26T13:03:54.663Z,5.73
2019-05-26T13:06:23.066Z,7.10
2019-05-26T13:08:51.562Z,6.80
2019-05-26T13:11:22.760Z,5.10
2019-05-26T13:13:50.291Z,6.63
2019-05-26T13:16:18.696Z,5.80
2019-05-26T13:18:47.177Z,5.20
2019-05-26T13:21:15.884Z,5.03
2019-05-26T13:23:44.463Z,7.30
2019-05-26T13:26:12.932Z,5.93
2019-05-26T13:28:41.435Z,4.80
2019-05-26T13:31:10.008Z,4.73
2019-05-26T13:33:38.406Z,6.30
2019-05-26T13:36:06.808Z,5.63
2019-05-26T13:38:35.380Z,5.27
2019-05-26T13:41:03.952Z,4.07
2019-05-26T13:43:32.527Z,5.77
2019-05-26T13:46:00.939Z,5.80
2019-05-26T13:48:29.335Z,6.07
2019-05-26T13:50:57.737Z,5.53
2019-05-26T13:53:26.241Z,4.90
2019-05-26T13:55:54.629Z,6.47
2019-05-26T13:58:23.031Z,6.43
2019-05-26T14:00:51.446Z,6.17
2019-05-26T14:03:19.865Z,6.50
2019-05-26T14:05:48.261Z,4.47
2019-05-26T14:08:16.689Z,4.37
2019-05-26T14:10:45.097Z,5.77
2019-05-26T14:13:13.485Z,6.87
2019-05-26T14:15:41.903Z,6.33
2019-05-26T14:18:10.358Z,5.80
2019-05-26T14:20:40.698Z,5.33
2019-05-26T14:23:09.831Z,5.93
2019-05-26T14:25:38.387Z,4.73
2019-05-26T14:28:07.507Z,4.33
2019-05-26T14:30:36.240Z,4.27
2019-05-26T14:33:05.291Z,6.03
2019-05-26T14:35:33.689Z,4.33
2019-05-26T14:38:02.112Z,4.43
2019-05-26T14:40:30.507Z,4.30
2019-05-26T14:42:58.903Z,4.23
2019-05-26T14:45:27.295Z,3.70
2019-05-26T14:47:55.772Z,4.53
2019-05-26T14:50:24.938Z,4.30
2019-05-26T14:52:53.376Z,3.43
2019-05-26T14:55:21.778Z,3.80
2019-05-26T14:57:50.266Z,3.60
2019-05-26T15:00:20.688Z,4.87
2019-05-26T15:02:49.117Z,4.07
2019-05-26T15:05:17.831Z,4.00
2019-05-26T15:07:46.261Z,4.33
2019-05-26T15:10:15.007Z,3.40
2019-05-26T15:12:43.552Z,3.73
2019-05-26T15:15:12.580Z,3.63
2019-05-26T15:17:40.972Z,3.20
2019-05-26T15:20:09.612Z,3.30
2019-05-26T15:22:38.059Z,3.20
2019-05-26T15:25:07.083Z,2.53
2019-05-26T15:27:35.840Z,2.97
2019-05-26T15:30:07.053Z,3.20
2019-05-26T15:32:35.525Z,3.57
2019-05-26T15:35:06.315Z,2.53
2019-05-26T15:37:34.789Z,3.07
2019-05-26T15:40:04.963Z,2.77
2019-05-26T15:42:33.349Z,3.40
2019-05-26T15:45:01.772Z,3.30
2019-05-26T15:47:30.151Z,2.80
2019-05-26T15:49:58.838Z,2.93
2019-05-26T15:52:27.210Z,2.93
2019-05-26T15:54:55.624Z,2.77
2019-05-26T15:57:24.078Z,3.77
2019-05-26T15:59:54.512Z,3.50
2019-05-26T16:02:22.604Z,2.80
2019-05-26T16:04:51.055Z,3.30
2019-05-26T16:07:19.483Z,2.73
2019-05-26T16:09:47.907Z,3.97
2019-05-26T16:12:16.303Z,2.70
2019-05-26T16:14:44.720Z,3.43
2019-05-26T16:17:13.133Z,2.90
2019-05-26T16:19:41.517Z,7.07
2019-05-26T16:22:09.935Z,3.30
2019-05-26T16:24:38.368Z,6.60
2019-05-26T16:27:18.701Z,5.60
2019-05-26T16:29:36.934Z,5.30
2019-05-26T16:32:05.355Z,3.50
2019-05-26T16:34:33.756Z,5.50
2019-05-26T16:37:02.154Z,3.47
2019-05-26T16:39:36.951Z,3.37
2019-05-26T16:42:00.760Z,3.00
2019-05-26T16:44:29.172Z,3.83
2019-05-26T16:46:57.729Z,2.80
2019-05-26T16:49:26.170Z,2.57
2019-05-26T16:51:54.554Z,2.77
2019-05-26T16:54:22.951Z,3.03
2019-05-26T16:56:51.371Z,2.97
2019-05-26T16:59:19.780Z,2.80
2019-05-26T17:01:48.191Z,2.50
2019-05-26T17:04:16.585Z,3.10
2019-05-26T17:06:44.999Z,3.20
2019-05-26T17:09:13.397Z,3.10
2019-05-26T17:11:41.812Z,3.53
2019-05-26T17:14:10.229Z,2.70
2019-05-26T17:16:39.061Z,2.67
2019-05-26T17:19:07.598Z,2.50
2019-05-26T17:21:36.003Z,2.70
2019-05-26T17:24:04.569Z,2.77
2019-05-26T17:26:33.029Z,3.33
2019-05-26T17:29:01.428Z,2.97
2019-05-26T17:31:29.825Z,3.17
2019-05-26T17:33:58.234Z,3.03
2019-05-26T17:36:26.647Z,2.90
2019-05-26T17:38:55.027Z,2.50
2019-05-26T17:41:23.444Z,2.77
2019-05-26T17:43:51.835Z,2.50
2019-05-26T17:46:20.248Z,2.40
2019-05-26T17:48:48.644Z,3.07
2019-05-26T17:51:17.046Z,2.47
2019-05-26T17:53:45.452Z,3.23
2019-05-26T17:56:13.862Z,4.93
2019-05-26T17:58:42.288Z,2.47
2019-05-26T18:01:10.722Z,2.87
2019-05-26T18:03:39.165Z,4.30
2019-05-26T18:06:07.636Z,3.20
2019-05-26T18:08:36.699Z,2.40
2019-05-26T18:11:05.655Z,2.90
2019-05-26T18:13:34.059Z,2.50
2019-05-26T18:16:02.551Z,3.20
2019-05-26T18:18:31.159Z,2.80
2019-05-26T18:20:59.562Z,2.73
2019-05-26T18:23:27.974Z,2.77
2019-05-26T18:25:56.947Z,4.73
2019-05-26T18:28:25.354Z,3.27
2019-05-26T18:30:53.755Z,3.03
2019-05-26T18:33:22.222Z,2.90
2019-05-26T18:35:50.631Z,3.17
2019-05-26T18:38:19.049Z,3.83
2019-05-26T18:40:47.433Z,4.27
2019-05-26T18:43:15.853Z,7.13
2019-05-26T18:45:44.251Z,4.97
2019-05-26T18:48:12.674Z,4.37
2019-05-26T18:50:41.087Z,2.97
2019-05-26T18:53:09.498Z,2.73
2019-05-26T18:55:37.878Z,3.10
2019-05-26T18:58:06.296Z,3.50
2019-05-26T19:00:34.686Z,2.40
2019-05-26T19:03:03.171Z,2.80
2019-05-26T19:05:35.875Z,3.20
2019-05-26T19:08:01.688Z,2.60
2019-05-26T19:10:30.098Z,2.80
2019-05-26T19:12:58.507Z,2.50
2019-05-26T19:15:26.910Z,2.63
2019-05-26T19:17:55.588Z,2.87
2019-05-26T19:20:24.333Z,2.83
2019-05-26T19:22:53.483Z,2.60
2019-05-26T19:25:22.023Z,2.50
2019-05-26T19:27:50.425Z,2.77
2019-05-26T19:30:19.667Z,3.83
2019-05-26T19:32:48.089Z,4.30
2019-05-26T19:35:16.853Z,3.50
2019-05-26T19:37:45.253Z,4.90
2019-05-26T19:40:14.004Z,3.80
2019-05-26T19:42:42.409Z,3.87
2019-05-26T19:45:10.997Z,5.87
2019-05-26T19:47:39.391Z,3.43
2019-05-26T19:50:08.061Z,3.97
2019-05-26T19:52:36.507Z,3.60
2019-05-26T19:55:07.747Z,3.90
2019-05-26T19:57:36.201Z,5.80
2019-05-26T20:00:12.692Z,4.73
2019-05-26T20:02:41.141Z,5.60
2019-05-26T20:05:10.082Z,9.10
2019-05-26T20:07:38.495Z,19.93
2019-05-26T20:10:08.156Z,38.73
2019-05-26T20:12:36.613Z,42.77
2019-05-26T20:15:06.164Z,41.23
2019-05-26T20:17:34.558Z,43.50
2019-05-26T20:20:03.358Z,40.57
2019-05-26T20:22:31.773Z,39.07
2019-05-26T20:25:00.250Z,32.07
2019-05-26T20:27:28.645Z,27.53
2019-05-26T20:29:57.060Z,24.13
2019-05-26T20:32:25.445Z,16.67
2019-05-26T20:34:53.863Z,14.43
2019-05-26T20:37:22.266Z,17.03
2019-05-26T20:39:50.674Z,13.97
2019-05-26T20:42:19.095Z,16.43
2019-05-26T20:44:47.512Z,11.50
2019-05-26T20:47:15.915Z,6.70
2019-05-26T20:49:45.639Z,5.63
2019-05-26T20:52:14.390Z,6.20
2019-05-26T20:54:42.813Z,4.93
2019-05-26T20:57:11.204Z,5.47
2019-05-26T20:59:39.628Z,6.30
2019-05-26T21:02:08.026Z,7.77
2019-05-26T21:04:36.428Z,6.00
2019-05-26T21:07:04.962Z,6.37
2019-05-26T21:09:33.367Z,4.57
2019-05-26T21:12:01.787Z,5.00
2019-05-26T21:14:30.174Z,5.27
2019-05-26T21:16:58.587Z,5.50
2019-05-26T21:19:27.247Z,6.27
2019-05-26T21:21:55.738Z,5.53
2019-05-26T21:24:24.136Z,4.60
2019-05-26T21:26:52.550Z,7.87
2019-05-26T21:29:21.025Z,4.60
2019-05-26T21:31:49.439Z,4.80
2019-05-26T21:34:17.856Z,5.27
2019-05-26T21:36:46.323Z,6.10
2019-05-26T21:39:14.713Z,6.90
2019-05-26T21:41:43.121Z,4.97
2019-05-26T21:44:11.560Z,7.80
2019-05-26T21:46:40.029Z,11.30
2019-05-26T21:49:08.431Z,7.00
2019-05-26T21:51:36.842Z,5.37
2019-05-26T21:54:05.239Z,6.57
2019-05-26T21:56:33.642Z,4.97
2019-05-26T21:59:02.030Z,6.73
2019-05-26T22:01:30.503Z,6.00
2019-05-26T22:03:58.899Z,6.07
2019-05-26T22:06:27.322Z,5.27
2019-05-26T22:08:55.716Z,5.50
2019-05-26T22:11:24.127Z,5.70
2019-05-26T22:13:52.525Z,5.27
2019-05-26T22:16:20.947Z,4.90
2019-05-26T22:18:49.349Z,6.43
2019-05-26T22:21:17.760Z,4.97
2019-05-26T22:23:46.163Z,5.20
2019-05-26T22:26:14.649Z,6.00
2019-05-26T22:28:43.028Z,6.23
2019-05-26T22:31:11.441Z,5.97
2019-05-26T22:33:39.899Z,5.57
2019-05-26T22:36:08.297Z,6.40
2019-05-26T22:38:36.706Z,6.20
2019-05-26T22:41:05.174Z,5.37
2019-05-26T22:43:33.598Z,5.70
2019-05-26T22:46:01.990Z,5.03
2019-05-26T22:48:30.399Z,7.10
2019-05-26T22:50:58.836Z,6.80
2019-05-26T22:53:27.278Z,6.47
2019-05-26T22:55:55.671Z,5.80
2019-05-26T22:58:24.087Z,6.67
2019-05-26T23:00:52.483Z,7.83
2019-05-26T23:03:20.891Z,5.97
2019-05-26T23:05:49.288Z,5.53
2019-05-26T23:08:17.681Z,6.00
2019-05-26T23:10:46.072Z,5.30
2019-05-26T23:13:14.474Z,4.90
2019-05-26T23:15:42.891Z,5.97
2019-05-26T23:18:11.289Z,4.93
2019-05-26T23:20:39.691Z,6.00
2019-05-26T23:23:08.093Z,5.67
2019-05-26T23:25:38.433Z,6.17
2019-05-26T23:28:06.928Z,5.60
2019-05-26T23:30:35.339Z,6.83
2019-05-26T23:33:03.751Z,8.10
2019-05-26T23:35:32.138Z,5.57
2019-05-26T23:38:00.547Z,6.40
2019-05-26T23:40:28.957Z,5.70
2019-05-26T23:42:57.346Z,6.47
2019-05-26T23:45:25.755Z,7.90
2019-05-26T23:47:54.161Z,5.80
2019-05-26T23:50:22.579Z,6.40
2019-05-26T23:52:51.000Z,7.67
2019-05-26T23:55:19.453Z,6.00
2019-05-26T23:57:47.872Z,6.73
